Samaria, MI (48177)

6:18 PM EST on December 07, 2016 (GMT -0500)
Jackman and Erie | | Change Station

Elev 656 ft 41.79 °N, 83.59 °W | Updated 19 seconds ago

Scattered Clouds
Scattered Clouds
33.3 °F
Feels Like 26 °F
N
9.2
Wind Variable Wind from WSW
Gusts 12.3 mph

Today
High -- | Low -- °F
--% Chance of Precip.
Yesterday
High -- | Low -- °F
Precip. -- in
Pressure 30.07 in
Visibility 10.0 miles
Clouds Scattered Clouds 11000 ft
Windchill 26 °F
Dew Point 21 °F
Humidity 60%
Rainfall 0.00 in
Snow Depth Not available.
7:48 AM 5:03 PM
First Quarter, 57% visible
METAR KDUH 072314Z AUTO 24008KT 10SM SCT110 01/M04 A3007 RMK AO2 T00101043
Pressure 30.07 in
Visibility 10.0 miles
Clouds Scattered Clouds 11000 ft
Windchill 26 °F
Dew Point 21 °F
Humidity 60%
Rainfall 0.00 in
Snow Depth Not available.
7:48 AM 5:03 PM
First Quarter, 57% visible
METAR KDUH 072314Z AUTO 24008KT 10SM SCT110 01/M04 A3007 RMK AO2 T00101043

10-Day Weather Forecast

Almanac

Astronomy

Dec. 07, 2016 Rise Set
Actual Time
Civil Twilight
Nautical Twilight
Astronomical Twilight
Moon
Length of Visible Light
Length of Day
Tomorrow will be .
, % of the Moon is Illuminated

Today's Extremes

State Highs State Lows

Community

WunderPhotos

Upload Photos

1,956,216 photos uploaded!

WunderBlog® & News

Nearby

Air Quality

  Air Quality AQ Index Pollutant
Not available.

Snow Depth

Station Depth Elevation

Earthquake Activity

City Distance Mag. Time & Date
Minimum magnitude displayed is 2.5.

Coastal Water Temperatures

Place Temperature

Stations

Nearby Weather Stations

Station Location Temp. Windchill Dew Point Humidity Wind Precip. Elev Updated Type
                   

Watches & Warnings

There are currently no watches in effect.